sensor_id;sensor_type;location;lat;lon;timestamp;pressure;altitude;pressure_sealevel;temperature;humidity
60920;BME280;59039;52.108;19.942;2023-04-25T00:00:24;99416.79;;;13.56;69.94
60920;BME280;59039;52.108;19.942;2023-04-25T00:03:01;99416.56;;;13.54;70.14
60920;BME280;59039;52.108;19.942;2023-04-25T00:05:53;99416.13;;;13.52;70.33
60920;BME280;59039;52.108;19.942;2023-04-25T00:08:47;99413.70;;;13.50;71.41
60920;BME280;59039;52.108;19.942;2023-04-25T00:11:36;99409.25;;;13.47;71.61
60920;BME280;59039;52.108;19.942;2023-04-25T00:14:32;99404.58;;;13.46;71.14
60920;BME280;59039;52.108;19.942;2023-04-25T00:20:42;99406.21;;;13.40;71.07
60920;BME280;59039;52.108;19.942;2023-04-25T00:23:21;99409.09;;;13.37;71.31
60920;BME280;59039;52.108;19.942;2023-04-25T00:25:55;99412.58;;;13.34;71.15
60920;BME280;59039;52.108;19.942;2023-04-25T00:31:26;99411.48;;;13.29;72.13
60920;BME280;59039;52.108;19.942;2023-04-25T00:34:12;99410.56;;;13.27;72.19
60920;BME280;59039;52.108;19.942;2023-04-25T00:37:10;99404.80;;;13.25;71.92
60920;BME280;59039;52.108;19.942;2023-04-25T00:39:57;99407.73;;;13.24;71.54
60920;BME280;59039;52.108;19.942;2023-04-25T00:42:23;99409.69;;;13.21;71.52
60920;BME280;59039;52.108;19.942;2023-04-25T00:45:06;99403.40;;;13.18;70.69
60920;BME280;59039;52.108;19.942;2023-04-25T00:53:29;99407.28;;;13.07;71.32
60920;BME280;59039;52.108;19.942;2023-04-25T00:59:13;99415.14;;;13.00;73.26
60920;BME280;59039;52.108;19.942;2023-04-25T01:01:58;99414.66;;;12.98;73.13
60920;BME280;59039;52.108;19.942;2023-04-25T01:07:38;99410.05;;;12.94;72.17
60920;BME280;59039;52.108;19.942;2023-04-25T01:13:21;99408.96;;;12.94;72.00
60920;BME280;59039;52.108;19.942;2023-04-25T01:16:20;99407.71;;;12.94;73.03
60920;BME280;59039;52.108;19.942;2023-04-25T01:19:17;99404.09;;;12.93;71.65
60920;BME280;59039;52.108;19.942;2023-04-25T01:22:02;99395.10;;;12.91;72.17
60920;BME280;59039;52.108;19.942;2023-04-25T01:24:32;99401.05;;;12.90;72.71
60920;BME280;59039;52.108;19.942;2023-04-25T01:30:13;99402.38;;;12.90;71.91
60920;BME280;59039;52.108;19.942;2023-04-25T01:33:05;99404.11;;;12.88;71.71
60920;BME280;59039;52.108;19.942;2023-04-25T01:38:35;99402.86;;;12.83;71.93
60920;BME280;59039;52.108;19.942;2023-04-25T01:41:33;99402.41;;;12.81;73.14
60920;BME280;59039;52.108;19.942;2023-04-25T01:44:29;99402.98;;;12.79;72.15
60920;BME280;59039;52.108;19.942;2023-04-25T01:47:04;99404.60;;;12.78;72.06
60920;BME280;59039;52.108;19.942;2023-04-25T01:50:11;99405.42;;;12.76;72.89
60920;BME280;59039;52.108;19.942;2023-04-25T01:52:47;99407.48;;;12.75;72.91
60920;BME280;59039;52.108;19.942;2023-04-25T01:55:37;99406.41;;;12.74;71.83
60920;BME280;59039;52.108;19.942;2023-04-25T01:58:23;99410.73;;;12.71;72.66
60920;BME280;59039;52.108;19.942;2023-04-25T02:01:13;99410.76;;;12.68;73.34
60920;BME280;59039;52.108;19.942;2023-04-25T02:04:01;99410.89;;;12.67;72.90
60920;BME280;59039;52.108;19.942;2023-04-25T02:06:31;99411.60;;;12.66;73.47
60920;BME280;59039;52.108;19.942;2023-04-25T02:09:25;99411.59;;;12.64;72.84
60920;BME280;59039;52.108;19.942;2023-04-25T02:15:14;99408.11;;;12.63;74.01
60920;BME280;59039;52.108;19.942;2023-04-25T02:18:00;99405.08;;;12.63;73.42
60920;BME280;59039;52.108;19.942;2023-04-25T02:20:57;99404.64;;;12.62;73.13
60920;BME280;59039;52.108;19.942;2023-04-25T02:26:49;99401.58;;;12.53;73.94
60920;BME280;59039;52.108;19.942;2023-04-25T02:32:25;99406.36;;;12.47;74.24
60920;BME280;59039;52.108;19.942;2023-04-25T02:35:03;99406.52;;;12.44;73.66
60920;BME280;59039;52.108;19.942;2023-04-25T02:37:50;99404.45;;;12.40;73.59
60920;BME280;59039;52.108;19.942;2023-04-25T02:40:38;99402.45;;;12.39;72.90
60920;BME280;59039;52.108;19.942;2023-04-25T02:46:13;99400.58;;;12.29;75.28
60920;BME280;59039;52.108;19.942;2023-04-25T02:49:19;99402.32;;;12.27;74.33
60920;BME280;59039;52.108;19.942;2023-04-25T02:54:48;99407.17;;;12.20;73.57
60920;BME280;59039;52.108;19.942;2023-04-25T03:00:42;99412.67;;;12.12;74.61
60920;BME280;59039;52.108;19.942;2023-04-25T03:03:48;99412.80;;;12.08;74.55
60920;BME280;59039;52.108;19.942;2023-04-25T03:06:36;99418.58;;;12.04;74.93
60920;BME280;59039;52.108;19.942;2023-04-25T03:09:42;99419.73;;;12.00;74.89
60920;BME280;59039;52.108;19.942;2023-04-25T03:15:53;99418.31;;;11.94;76.18
60920;BME280;59039;52.108;19.942;2023-04-25T03:18:38;99418.19;;;11.91;75.84
60920;BME280;59039;52.108;19.942;2023-04-25T03:21:44;99420.02;;;11.87;75.87
60920;BME280;59039;52.108;19.942;2023-04-25T03:24:22;99423.14;;;11.83;76.12
60920;BME280;59039;52.108;19.942;2023-04-25T03:27:10;99424.80;;;11.81;76.79
60920;BME280;59039;52.108;19.942;2023-04-25T03:29:43;99423.42;;;11.79;76.35
60920;BME280;59039;52.108;19.942;2023-04-25T03:32:13;99427.17;;;11.78;75.71
60920;BME280;59039;52.108;19.942;2023-04-25T03:34:44;99427.30;;;11.75;75.68
60920;BME280;59039;52.108;19.942;2023-04-25T03:37:19;99434.81;;;11.73;75.49
60920;BME280;59039;52.108;19.942;2023-04-25T03:40:05;99429.41;;;11.70;75.05
60920;BME280;59039;52.108;19.942;2023-04-25T03:45:53;99433.45;;;11.61;75.90
60920;BME280;59039;52.108;19.942;2023-04-25T03:48:59;99438.85;;;11.55;75.60
60920;BME280;59039;52.108;19.942;2023-04-25T03:52:05;99437.41;;;11.48;75.69
60920;BME280;59039;52.108;19.942;2023-04-25T03:54:39;99440.27;;;11.44;76.09
60920;BME280;59039;52.108;19.942;2023-04-25T03:57:35;99440.98;;;11.40;77.04
60920;BME280;59039;52.108;19.942;2023-04-25T04:06:01;99448.70;;;11.25;77.54
60920;BME280;59039;52.108;19.942;2023-04-25T04:14:50;99447.70;;;11.11;77.48
60920;BME280;59039;52.108;19.942;2023-04-25T04:17:34;99451.80;;;11.08;77.27
60920;BME280;59039;52.108;19.942;2023-04-25T04:20:41;99452.40;;;11.08;77.20
60920;BME280;59039;52.108;19.942;2023-04-25T04:23:46;99454.66;;;11.07;77.97
60920;BME280;59039;52.108;19.942;2023-04-25T04:26:30;99454.36;;;11.07;77.52
60920;BME280;59039;52.108;19.942;2023-04-25T04:29:37;99455.42;;;11.05;77.69
60920;BME280;59039;52.108;19.942;2023-04-25T04:32:22;99461.67;;;11.02;76.90
60920;BME280;59039;52.108;19.942;2023-04-25T04:35:09;99463.15;;;10.98;78.21
60920;BME280;59039;52.108;19.942;2023-04-25T04:38:07;99462.67;;;10.95;77.94
60920;BME280;59039;52.108;19.942;2023-04-25T04:40:35;99465.31;;;10.91;78.08
60920;BME280;59039;52.108;19.942;2023-04-25T04:43:41;99467.77;;;10.88;76.87
60920;BME280;59039;52.108;19.942;2023-04-25T04:57:21;99474.41;;;10.76;76.19
60920;BME280;59039;52.108;19.942;2023-04-25T05:00:03;99474.10;;;10.73;75.38
60920;BME280;59039;52.108;19.942;2023-04-25T05:02:34;99477.75;;;10.70;75.58
60920;BME280;59039;52.108;19.942;2023-04-25T05:08:01;99474.14;;;10.65;75.71
60920;BME280;59039;52.108;19.942;2023-04-25T05:10:51;99478.20;;;10.61;75.73
60920;BME280;59039;52.108;19.942;2023-04-25T05:16:17;99478.11;;;10.52;74.89
60920;BME280;59039;52.108;19.942;2023-04-25T05:21:43;99488.15;;;10.40;74.12
60920;BME280;59039;52.108;19.942;2023-04-25T05:24:16;99491.27;;;10.35;74.19
60920;BME280;59039;52.108;19.942;2023-04-25T05:30:03;99498.10;;;10.30;74.52
60920;BME280;59039;52.108;19.942;2023-04-25T05:35:19;99501.83;;;10.27;74.14
60920;BME280;59039;52.108;19.942;2023-04-25T05:37:56;99499.96;;;10.24;74.20
60920;BME280;59039;52.108;19.942;2023-04-25T05:43:21;99503.02;;;10.15;73.80
60920;BME280;59039;52.108;19.942;2023-04-25T05:46:10;99506.63;;;10.09;73.85
60920;BME280;59039;52.108;19.942;2023-04-25T05:48:38;99511.36;;;10.02;74.04
60920;BME280;59039;52.108;19.942;2023-04-25T05:51:29;99516.02;;;9.99;73.99
60920;BME280;59039;52.108;19.942;2023-04-25T05:54:16;99516.02;;;9.96;73.88
60920;BME280;59039;52.108;19.942;2023-04-25T05:56:46;99517.08;;;9.94;73.84
60920;BME280;59039;52.108;19.942;2023-04-25T06:05:24;99513.63;;;9.96;74.25
60920;BME280;59039;52.108;19.942;2023-04-25T06:08:13;99522.92;;;9.96;74.37
60920;BME280;59039;52.108;19.942;2023-04-25T06:11:00;99523.46;;;9.97;74.79
60920;BME280;59039;52.108;19.942;2023-04-25T06:13:55;99522.23;;;10.00;74.60
60920;BME280;59039;52.108;19.942;2023-04-25T06:25:07;99530.41;;;10.07;73.89
60920;BME280;59039;52.108;19.942;2023-04-25T06:28:01;99533.21;;;10.07;74.30
60920;BME280;59039;52.108;19.942;2023-04-25T06:30:58;99540.16;;;10.08;73.69
60920;BME280;59039;52.108;19.942;2023-04-25T06:33:43;99538.81;;;10.07;74.19
60920;BME280;59039;52.108;19.942;2023-04-25T06:36:21;99539.52;;;10.08;74.21
60920;BME280;59039;52.108;19.942;2023-04-25T06:39:11;99542.95;;;10.09;74.06
60920;BME280;59039;52.108;19.942;2023-04-25T06:41:48;99536.31;;;10.12;73.79
60920;BME280;59039;52.108;19.942;2023-04-25T06:47:49;99546.39;;;10.17;73.16
60920;BME280;59039;52.108;19.942;2023-04-25T06:50:34;99550.45;;;10.23;73.79
60920;BME280;59039;52.108;19.942;2023-04-25T06:53:40;99550.35;;;10.29;73.52
60920;BME280;59039;52.108;19.942;2023-04-25T06:56:36;99549.36;;;10.34;72.30
60920;BME280;59039;52.108;19.942;2023-04-25T07:02:40;99552.64;;;10.40;71.93
60920;BME280;59039;52.108;19.942;2023-04-25T07:05:30;99552.83;;;10.43;71.82
60920;BME280;59039;52.108;19.942;2023-04-25T07:08:18;99553.91;;;10.47;71.52
60920;BME280;59039;52.108;19.942;2023-04-25T07:13:52;99553.85;;;10.54;70.86
60920;BME280;59039;52.108;19.942;2023-04-25T07:16:48;99557.00;;;10.55;70.52
60920;BME280;59039;52.108;19.942;2023-04-25T07:19:54;99554.92;;;10.55;70.48
60920;BME280;59039;52.108;19.942;2023-04-25T07:23:00;99555.11;;;10.57;70.62
60920;BME280;59039;52.108;19.942;2023-04-25T07:25:40;99556.27;;;10.58;69.96
60920;BME280;59039;52.108;19.942;2023-04-25T07:28:40;99553.34;;;10.58;70.10
60920;BME280;59039;52.108;19.942;2023-04-25T07:34:44;99558.39;;;10.60;70.15
60920;BME280;59039;52.108;19.942;2023-04-25T07:37:49;99559.58;;;10.62;70.08
60920;BME280;59039;52.108;19.942;2023-04-25T07:43:28;99565.09;;;10.64;69.32
60920;BME280;59039;52.108;19.942;2023-04-25T07:49:04;99566.82;;;10.61;69.85
60920;BME280;59039;52.108;19.942;2023-04-25T07:51:30;99564.92;;;10.63;70.06
60920;BME280;59039;52.108;19.942;2023-04-25T07:57:35;99564.66;;;10.65;69.14
60920;BME280;59039;52.108;19.942;2023-04-25T08:00:29;99564.02;;;10.66;68.59
60920;BME280;59039;52.108;19.942;2023-04-25T08:03:14;99557.83;;;10.66;68.86
60920;BME280;59039;52.108;19.942;2023-04-25T08:14:54;99557.68;;;10.82;68.63
60920;BME280;59039;52.108;19.942;2023-04-25T08:17:32;99559.71;;;10.86;68.46
60920;BME280;59039;52.108;19.942;2023-04-25T08:22:54;99562.98;;;10.93;67.79
60920;BME280;59039;52.108;19.942;2023-04-25T08:25:30;99556.80;;;10.96;67.97
60920;BME280;59039;52.108;19.942;2023-04-25T08:28:29;99552.91;;;10.98;67.97
60920;BME280;59039;52.108;19.942;2023-04-25T08:31:36;99559.92;;;11.03;67.86
60920;BME280;59039;52.108;19.942;2023-04-25T08:34:07;99563.04;;;11.04;67.20
60920;BME280;59039;52.108;19.942;2023-04-25T08:37:13;99567.39;;;11.06;67.21
60920;BME280;59039;52.108;19.942;2023-04-25T08:39:53;99570.19;;;11.08;67.80
60920;BME280;59039;52.108;19.942;2023-04-25T08:42:58;99572.07;;;11.11;67.88
60920;BME280;59039;52.108;19.942;2023-04-25T08:46:04;99574.17;;;11.15;67.19
60920;BME280;59039;52.108;19.942;2023-04-25T08:51:46;99574.23;;;11.19;66.94
60920;BME280;59039;52.108;19.942;2023-04-25T08:54:40;99576.52;;;11.19;66.74
60920;BME280;59039;52.108;19.942;2023-04-25T08:57:30;99582.59;;;11.20;66.49
60920;BME280;59039;52.108;19.942;2023-04-25T09:00:00;99582.86;;;11.21;66.19
60920;BME280;59039;52.108;19.942;2023-04-25T09:03:07;99585.15;;;11.23;66.30
60920;BME280;59039;52.108;19.942;2023-04-25T09:11:21;99589.52;;;11.27;65.02
60920;BME280;59039;52.108;19.942;2023-04-25T09:14:32;99591.97;;;11.28;64.34
60920;BME280;59039;52.108;19.942;2023-04-25T09:16:59;99593.31;;;11.29;65.00
60920;BME280;59039;52.108;19.942;2023-04-25T09:19:41;99592.70;;;11.33;65.17
60920;BME280;59039;52.108;19.942;2023-04-25T09:22:40;99593.81;;;11.36;65.33
60920;BME280;59039;52.108;19.942;2023-04-25T09:25:33;99594.30;;;11.40;65.59
60920;BME280;59039;52.108;19.942;2023-04-25T09:28:22;99599.94;;;11.41;65.48
60920;BME280;59039;52.108;19.942;2023-04-25T09:36:31;99602.98;;;11.54;65.78
60920;BME280;59039;52.108;19.942;2023-04-25T09:41:46;99604.92;;;11.59;65.03
60920;BME280;59039;52.108;19.942;2023-04-25T09:50:15;99604.11;;;11.67;64.28
60920;BME280;59039;52.108;19.942;2023-04-25T09:52:44;99602.19;;;11.68;64.53
60920;BME280;59039;52.108;19.942;2023-04-25T09:55:32;99599.79;;;11.71;64.27
60920;BME280;59039;52.108;19.942;2023-04-25T09:58:11;99598.36;;;11.76;64.30
60920;BME280;59039;52.108;19.942;2023-04-25T10:01:02;99600.23;;;11.80;64.41
60920;BME280;59039;52.108;19.942;2023-04-25T10:03:43;99603.60;;;11.85;64.01
60920;BME280;59039;52.108;19.942;2023-04-25T10:06:19;99604.67;;;11.92;63.95
60920;BME280;59039;52.108;19.942;2023-04-25T10:11:51;99609.87;;;12.06;63.24
60920;BME280;59039;52.108;19.942;2023-04-25T10:14:16;99608.96;;;12.12;62.67
60920;BME280;59039;52.108;19.942;2023-04-25T10:17:22;99608.21;;;12.17;62.49
60920;BME280;59039;52.108;19.942;2023-04-25T10:19:50;99611.27;;;12.23;62.84
60920;BME280;59039;52.108;19.942;2023-04-25T10:23:03;99612.73;;;12.27;62.85
60920;BME280;59039;52.108;19.942;2023-04-25T10:26:09;99614.34;;;12.35;62.52
60920;BME280;59039;52.108;19.942;2023-04-25T10:29:26;99612.88;;;12.43;62.54
60920;BME280;59039;52.108;19.942;2023-04-25T10:31:45;99618.55;;;12.51;61.66
60920;BME280;59039;52.108;19.942;2023-04-25T10:35:06;99616.38;;;12.56;61.39
60920;BME280;59039;52.108;19.942;2023-04-25T10:37:13;99616.89;;;12.62;61.61
60920;BME280;59039;52.108;19.942;2023-04-25T10:39:43;99614.71;;;12.68;61.25
60920;BME280;59039;52.108;19.942;2023-04-25T10:42:29;99617.29;;;12.72;61.19
60920;BME280;59039;52.108;19.942;2023-04-25T10:45:31;99617.38;;;12.76;61.24
60920;BME280;59039;52.108;19.942;2023-04-25T10:48:51;99617.02;;;12.80;61.24
60920;BME280;59039;52.108;19.942;2023-04-25T10:51:25;99614.14;;;12.84;60.92
60920;BME280;59039;52.108;19.942;2023-04-25T10:54:17;99620.00;;;12.89;60.39
60920;BME280;59039;52.108;19.942;2023-04-25T10:56:45;99612.01;;;12.94;60.28
60920;BME280;59039;52.108;19.942;2023-04-25T10:59:31;99610.83;;;13.01;60.32
60920;BME280;59039;52.108;19.942;2023-04-25T11:05:54;99607.79;;;13.12;60.08
60920;BME280;59039;52.108;19.942;2023-04-25T11:08:04;99606.02;;;13.16;59.39
60920;BME280;59039;52.108;19.942;2023-04-25T11:10:54;99608.58;;;13.16;58.67
60920;BME280;59039;52.108;19.942;2023-04-25T11:19:43;99609.01;;;13.10;58.62
60920;BME280;59039;52.108;19.942;2023-04-25T11:22:14;99608.65;;;13.08;58.64
60920;BME280;59039;52.108;19.942;2023-04-25T11:28:20;99605.14;;;13.09;59.14
60920;BME280;59039;52.108;19.942;2023-04-25T11:30:59;99610.88;;;13.11;58.99
60920;BME280;59039;52.108;19.942;2023-04-25T11:33:29;99607.58;;;13.12;58.85
60920;BME280;59039;52.108;19.942;2023-04-25T11:36:06;99604.88;;;13.11;58.87
60920;BME280;59039;52.108;19.942;2023-04-25T11:41:31;99603.66;;;13.12;59.44
60920;BME280;59039;52.108;19.942;2023-04-25T11:44:00;99607.84;;;13.10;59.58
60920;BME280;59039;52.108;19.942;2023-04-25T11:47:06;99604.17;;;13.09;59.74
60920;BME280;59039;52.108;19.942;2023-04-25T11:49:52;99607.55;;;13.07;59.33
60920;BME280;59039;52.108;19.942;2023-04-25T11:52:25;99611.64;;;13.05;58.83
60920;BME280;59039;52.108;19.942;2023-04-25T11:54:59;99609.68;;;13.03;59.21
60920;BME280;59039;52.108;19.942;2023-04-25T11:57:51;99612.45;;;13.00;58.57
60920;BME280;59039;52.108;19.942;2023-04-25T12:00:20;99606.33;;;12.96;58.46
60920;BME280;59039;52.108;19.942;2023-04-25T12:02:58;99609.64;;;12.93;58.01
60920;BME280;59039;52.108;19.942;2023-04-25T12:08:31;99606.96;;;12.91;58.22
60920;BME280;59039;52.108;19.942;2023-04-25T12:11:20;99604.69;;;12.89;58.32
60920;BME280;59039;52.108;19.942;2023-04-25T12:14:04;99602.06;;;12.88;58.49
60920;BME280;59039;52.108;19.942;2023-04-25T12:16:50;99604.61;;;12.88;58.17
60920;BME280;59039;52.108;19.942;2023-04-25T12:19:24;99603.22;;;12.87;58.07
60920;BME280;59039;52.108;19.942;2023-04-25T12:21:58;99604.27;;;12.86;58.09
60920;BME280;59039;52.108;19.942;2023-04-25T12:24:26;99608.80;;;12.86;58.15
60920;BME280;59039;52.108;19.942;2023-04-25T12:27:01;99614.11;;;12.86;58.28
60920;BME280;59039;52.108;19.942;2023-04-25T12:29:39;99615.20;;;12.85;57.48
60920;BME280;59039;52.108;19.942;2023-04-25T12:35:06;99613.23;;;12.81;57.89
60920;BME280;59039;52.108;19.942;2023-04-25T12:37:37;99616.66;;;12.82;58.67
60920;BME280;59039;52.108;19.942;2023-04-25T12:40:22;99616.21;;;12.82;59.14
60920;BME280;59039;52.108;19.942;2023-04-25T12:43:09;99614.17;;;12.81;59.11
60920;BME280;59039;52.108;19.942;2023-04-25T12:45:33;99614.13;;;12.77;58.86
60920;BME280;59039;52.108;19.942;2023-04-25T12:48:12;99612.25;;;12.75;58.74
60920;BME280;59039;52.108;19.942;2023-04-25T12:51:18;99611.48;;;12.73;58.81
60920;BME280;59039;52.108;19.942;2023-04-25T12:54:05;99617.14;;;12.72;58.99
60920;BME280;59039;52.108;19.942;2023-04-25T12:59:45;99611.38;;;12.74;59.91
60920;BME280;59039;52.108;19.942;2023-04-25T13:02:50;99612.13;;;12.74;60.00
60920;BME280;59039;52.108;19.942;2023-04-25T13:05:21;99611.85;;;12.73;60.81
60920;BME280;59039;52.108;19.942;2023-04-25T13:08:06;99613.59;;;12.71;60.96
60920;BME280;59039;52.108;19.942;2023-04-25T13:16:30;99610.18;;;12.62;60.03
60920;BME280;59039;52.108;19.942;2023-04-25T13:19:15;99606.36;;;12.59;59.93
60920;BME280;59039;52.108;19.942;2023-04-25T13:21:56;99610.41;;;12.54;58.94
60920;BME280;59039;52.108;19.942;2023-04-25T13:24:21;99612.11;;;12.50;59.03
60920;BME280;59039;52.108;19.942;2023-04-25T13:27:17;99609.25;;;12.49;59.69
60920;BME280;59039;52.108;19.942;2023-04-25T13:29:41;99610.15;;;12.47;60.34
60920;BME280;59039;52.108;19.942;2023-04-25T13:32:14;99607.12;;;12.47;59.87
60920;BME280;59039;52.108;19.942;2023-04-25T13:34:42;99606.62;;;12.48;60.04
60920;BME280;59039;52.108;19.942;2023-04-25T13:37:17;99610.02;;;12.48;60.54
60920;BME280;59039;52.108;19.942;2023-04-25T13:40:07;99605.80;;;12.51;61.06
60920;BME280;59039;52.108;19.942;2023-04-25T13:42:48;99606.49;;;12.53;61.07
60920;BME280;59039;52.108;19.942;2023-04-25T13:45:14;99610.03;;;12.54;61.15
60920;BME280;59039;52.108;19.942;2023-04-25T13:48:20;99613.42;;;12.53;61.03
60920;BME280;59039;52.108;19.942;2023-04-25T13:51:06;99615.13;;;12.49;60.62
60920;BME280;59039;52.108;19.942;2023-04-25T13:53:34;99618.30;;;12.46;60.61
60920;BME280;59039;52.108;19.942;2023-04-25T13:56:13;99617.98;;;12.41;61.28
60920;BME280;59039;52.108;19.942;2023-04-25T13:59:05;99620.91;;;12.38;62.03
60920;BME280;59039;52.108;19.942;2023-04-25T14:02:00;99620.96;;;12.36;62.67
60920;BME280;59039;52.108;19.942;2023-04-25T14:04:29;99622.98;;;12.33;62.63
60920;BME280;59039;52.108;19.942;2023-04-25T14:07:36;99623.92;;;12.30;63.26
60920;BME280;59039;52.108;19.942;2023-04-25T14:10:17;99620.36;;;12.24;63.42
60920;BME280;59039;52.108;19.942;2023-04-25T14:13:23;99619.56;;;12.22;63.56
60920;BME280;59039;52.108;19.942;2023-04-25T14:18:49;99625.85;;;12.15;63.39
60920;BME280;59039;52.108;19.942;2023-04-25T14:21:37;99625.77;;;12.11;63.30
60920;BME280;59039;52.108;19.942;2023-04-25T14:24:37;99628.64;;;12.08;63.58
60920;BME280;59039;52.108;19.942;2023-04-25T14:27:29;99633.59;;;12.06;65.07
60920;BME280;59039;52.108;19.942;2023-04-25T14:29:57;99630.65;;;12.05;65.80
60920;BME280;59039;52.108;19.942;2023-04-25T14:32:28;99629.44;;;12.03;65.90
60920;BME280;59039;52.108;19.942;2023-04-25T14:38:07;99627.23;;;12.02;66.56
60920;BME280;59039;52.108;19.942;2023-04-25T14:41:14;99628.89;;;12.00;67.25
60920;BME280;59039;52.108;19.942;2023-04-25T14:44:20;99631.05;;;11.97;66.41
60920;BME280;59039;52.108;19.942;2023-04-25T14:47:25;99633.02;;;11.93;66.23
60920;BME280;59039;52.108;19.942;2023-04-25T14:50:11;99634.02;;;11.89;66.30
60920;BME280;59039;52.108;19.942;2023-04-25T14:52:51;99636.48;;;11.87;66.08
60920;BME280;59039;52.108;19.942;2023-04-25T14:55:36;99633.82;;;11.83;66.70
60920;BME280;59039;52.108;19.942;2023-04-25T14:58:27;99637.45;;;11.81;66.83
60920;BME280;59039;52.108;19.942;2023-04-25T15:06:43;99634.56;;;11.80;67.31
60920;BME280;59039;52.108;19.942;2023-04-25T15:09:14;99632.81;;;11.81;67.13
60920;BME280;59039;52.108;19.942;2023-04-25T15:12:20;99634.64;;;11.82;67.83
60920;BME280;59039;52.108;19.942;2023-04-25T15:18:02;99634.66;;;11.85;67.36
60920;BME280;59039;52.108;19.942;2023-04-25T15:23:14;99640.20;;;11.83;68.29
60920;BME280;59039;52.108;19.942;2023-04-25T15:25:49;99640.92;;;11.81;67.72
60920;BME280;59039;52.108;19.942;2023-04-25T15:28:22;99641.99;;;11.80;67.62
60920;BME280;59039;52.108;19.942;2023-04-25T15:30:51;99644.32;;;11.79;67.55
60920;BME280;59039;52.108;19.942;2023-04-25T15:33:39;99645.57;;;11.79;67.54
60920;BME280;59039;52.108;19.942;2023-04-25T15:39:27;99652.67;;;11.74;69.43
60920;BME280;59039;52.108;19.942;2023-04-25T15:41:56;99652.95;;;11.70;69.77
60920;BME280;59039;52.108;19.942;2023-04-25T15:44:44;99652.80;;;11.67;69.67
60920;BME280;59039;52.108;19.942;2023-04-25T15:53:13;99648.55;;;11.56;69.68
60920;BME280;59039;52.108;19.942;2023-04-25T15:56:11;99646.17;;;11.55;69.38
60920;BME280;59039;52.108;19.942;2023-04-25T15:58:43;99645.20;;;11.54;69.31
60920;BME280;59039;52.108;19.942;2023-04-25T16:01:42;99644.67;;;11.53;68.96
60920;BME280;59039;52.108;19.942;2023-04-25T16:04:27;99646.42;;;11.53;68.70
60920;BME280;59039;52.108;19.942;2023-04-25T16:07:15;99646.46;;;11.53;69.14
60920;BME280;59039;52.108;19.942;2023-04-25T16:10:05;99636.47;;;11.51;69.04
60920;BME280;59039;52.108;19.942;2023-04-25T16:15:28;99632.88;;;11.47;69.17
60920;BME280;59039;52.108;19.942;2023-04-25T16:18:04;99633.03;;;11.46;69.45
60920;BME280;59039;52.108;19.942;2023-04-25T16:20:31;99632.92;;;11.46;68.91
60920;BME280;59039;52.108;19.942;2023-04-25T16:23:19;99632.63;;;11.45;69.07
60920;BME280;59039;52.108;19.942;2023-04-25T16:26:25;99633.89;;;11.44;69.40
60920;BME280;59039;52.108;19.942;2023-04-25T16:29:13;99636.11;;;11.43;69.91
60920;BME280;59039;52.108;19.942;2023-04-25T16:34:46;99641.48;;;11.44;69.08
60920;BME280;59039;52.108;19.942;2023-04-25T16:37:53;99645.02;;;11.45;69.07
60920;BME280;59039;52.108;19.942;2023-04-25T16:40:48;99648.63;;;11.45;68.67
60920;BME280;59039;52.108;19.942;2023-04-25T16:43:39;99648.04;;;11.45;69.03
60920;BME280;59039;52.108;19.942;2023-04-25T16:49:43;99651.27;;;11.47;69.12
60920;BME280;59039;52.108;19.942;2023-04-25T16:55:44;99652.95;;;11.47;69.68
60920;BME280;59039;52.108;19.942;2023-04-25T17:01:30;99653.57;;;11.46;69.94
60920;BME280;59039;52.108;19.942;2023-04-25T17:06:42;99656.37;;;11.47;69.93
60920;BME280;59039;52.108;19.942;2023-04-25T17:09:13;99660.18;;;11.47;70.21
60920;BME280;59039;52.108;19.942;2023-04-25T17:12:02;99664.23;;;11.47;69.87
60920;BME280;59039;52.108;19.942;2023-04-25T17:18:00;99668.96;;;11.45;70.26
60920;BME280;59039;52.108;19.942;2023-04-25T17:20:36;99670.16;;;11.42;70.06
60920;BME280;59039;52.108;19.942;2023-04-25T17:23:28;99666.20;;;11.40;70.05
60920;BME280;59039;52.108;19.942;2023-04-25T17:29:21;99666.73;;;11.38;69.89
60920;BME280;59039;52.108;19.942;2023-04-25T17:32:27;99671.63;;;11.36;69.84
60920;BME280;59039;52.108;19.942;2023-04-25T17:35:32;99675.15;;;11.32;69.40
60920;BME280;59039;52.108;19.942;2023-04-25T17:38:38;99675.61;;;11.28;69.26
60920;BME280;59039;52.108;19.942;2023-04-25T17:44:15;99684.05;;;11.21;69.05
60920;BME280;59039;52.108;19.942;2023-04-25T17:49:52;99689.33;;;11.16;69.25
60920;BME280;59039;52.108;19.942;2023-04-25T17:52:46;99688.52;;;11.14;68.77
60920;BME280;59039;52.108;19.942;2023-04-25T17:55:24;99691.50;;;11.12;68.93
60920;BME280;59039;52.108;19.942;2023-04-25T17:58:31;99691.16;;;11.11;68.76
60920;BME280;59039;52.108;19.942;2023-04-25T18:00:58;99692.56;;;11.08;68.74
60920;BME280;59039;52.108;19.942;2023-04-25T18:03:50;99693.09;;;11.05;68.28
60920;BME280;59039;52.108;19.942;2023-04-25T18:06:56;99696.01;;;11.03;68.35
60920;BME280;59039;52.108;19.942;2023-04-25T18:10:01;99700.48;;;11.02;68.26
60920;BME280;59039;52.108;19.942;2023-04-25T18:12:26;99702.00;;;10.99;67.97
60920;BME280;59039;52.108;19.942;2023-04-25T18:18:08;99710.04;;;10.97;67.80
60920;BME280;59039;52.108;19.942;2023-04-25T18:26:18;99722.62;;;10.93;67.24
60920;BME280;59039;52.108;19.942;2023-04-25T18:29:25;99722.39;;;10.92;67.26
60920;BME280;59039;52.108;19.942;2023-04-25T18:32:31;99724.73;;;10.90;67.41
60920;BME280;59039;52.108;19.942;2023-04-25T18:37:56;99730.86;;;10.87;67.09
60920;BME280;59039;52.108;19.942;2023-04-25T18:43:29;99740.11;;;10.85;67.39
60920;BME280;59039;52.108;19.942;2023-04-25T18:48:50;99751.80;;;10.85;67.43
60920;BME280;59039;52.108;19.942;2023-04-25T18:51:36;99755.59;;;10.82;67.33